Time;durP1;ratioP1;P1;durP2;ratioP2;P2;SDS_P1;SDS_P2;PMS_P1;PMS_P2;Temp;Humidity;BMP_temperature;BMP_pressure;BME280_temperature;BME280_humidity;BME280_pressure;Samples;Min_cycle;Max_cycle;Signal;HPM_P1;HPM_P2
2023/08/04 00:00:45;;;;;;;;;;;15.00;79.40;;;;;;5088651;28;19959;-68
2023/08/04 00:03:11;;;;;;;;;;;14.90;79.40;;;;;;5090127;28;19920;-75
2023/08/04 00:05:36;;;;;;;;;;;14.90;79.40;;;;;;5091247;28;19920;-77
2023/08/04 00:08:02;;;;;;;;;;;14.80;79.30;;;;;;5088996;28;19948;-77
2023/08/04 00:10:27;;;;;;;;;;;14.70;79.30;;;;;;5087510;28;19917;-77
2023/08/04 00:12:53;;;;;;;;;;;14.60;79.30;;;;;;5087700;28;19913;-77
2023/08/04 00:15:19;;;;;;;;;;;14.50;79.30;;;;;;5087610;28;20431;-76
2023/08/04 00:17:45;;;;;;;;;;;14.50;79.30;;;;;;5089216;28;20398;-75
2023/08/04 00:20:11;;;;;;;;;;;14.40;79.30;;;;;;5088504;28;19941;-75
2023/08/04 00:22:36;;;;;;;;;;;14.30;79.30;;;;;;5088571;28;19912;-75
2023/08/04 00:25:02;;;;;;;;;;;14.30;79.30;;;;;;5088578;28;19908;-75
2023/08/04 00:27:28;;;;;;;;;;;14.30;79.30;;;;;;5088569;28;19916;-75
2023/08/04 00:29:54;;;;;;;;;;;14.20;79.20;;;;;;5088457;28;19953;-75
2023/08/04 00:32:19;;;;;;;;;;;14.20;79.20;;;;;;5088469;28;19923;-75
2023/08/04 00:34:45;;;;;;;;;;;14.10;79.20;;;;;;5088379;28;19912;-75
2023/08/04 00:37:11;;;;;;;;;;;14.00;79.20;;;;;;5088329;28;19909;-75
2023/08/04 00:39:37;;;;;;;;;;;14.00;79.20;;;;;;5087738;28;19916;-75
2023/08/04 00:42:02;;;;;;;;;;;14.00;79.20;;;;;;5088245;28;19947;-75
2023/08/04 00:44:28;;;;;;;;;;;13.90;79.10;;;;;;5088291;28;19919;-75
2023/08/04 00:46:53;;;;;;;;;;;13.90;79.10;;;;;;5088255;28;19968;-75
2023/08/04 00:49:20;;;;;;;;;;;13.80;79.10;;;;;;5088629;28;20369;-75
2023/08/04 00:51:46;;;;;;;;;;;13.80;79.00;;;;;;5086978;28;20299;-75
2023/08/04 00:54:12;;;;;;;;;;;13.70;79.00;;;;;;5086936;28;19951;-75
2023/08/04 00:56:38;;;;;;;;;;;13.70;79.00;;;;;;5086617;28;19955;-75
2023/08/04 00:59:04;;;;;;;;;;;13.70;79.10;;;;;;5086715;28;19961;-75
2023/08/04 01:01:29;;;;;;;;;;;13.60;79.00;;;;;;5087907;28;19946;-75
2023/08/04 01:03:56;;;;;;;;;;;13.60;79.00;;;;;;5086753;28;19916;-75
2023/08/04 01:06:30;;;;;;;;;;;13.60;79.00;;;;;;5087847;28;19922;-75
2023/08/04 01:08:59;;;;;;;;;;;13.60;79.10;;;;;;5087893;28;20007;-75
2023/08/04 01:11:27;;;;;;;;;;;13.60;79.50;;;;;;5086545;28;19922;-75
2023/08/04 01:13:53;;;;;;;;;;;13.50;79.00;;;;;;5087931;28;19908;-75
2023/08/04 01:16:19;;;;;;;;;;;13.50;79.00;;;;;;5087810;28;19912;-75
2023/08/04 01:18:44;;;;;;;;;;;13.50;79.00;;;;;;5087758;28;19939;-75
2023/08/04 01:21:10;;;;;;;;;;;13.50;78.90;;;;;;5086407;28;19913;-75
2023/08/04 01:23:35;;;;;;;;;;;13.40;78.90;;;;;;5087844;28;19920;-75
2023/08/04 01:26:02;;;;;;;;;;;13.40;78.90;;;;;;5086431;28;19931;-75
2023/08/04 01:28:29;;;;;;;;;;;13.30;78.90;;;;;;5086569;28;19916;-75
2023/08/04 01:30:55;;;;;;;;;;;13.30;78.90;;;;;;5086312;28;19993;-74
2023/08/04 01:33:21;;;;;;;;;;;13.20;78.90;;;;;;5087954;28;20013;-75
2023/08/04 01:35:46;;;;;;;;;;;13.20;78.90;;;;;;5087693;28;19913;-75
2023/08/04 01:38:12;;;;;;;;;;;13.20;78.90;;;;;;5087723;28;20006;-75
2023/08/04 01:40:38;;;;;;;;;;;13.10;78.80;;;;;;5086639;28;20368;-75
2023/08/04 01:43:04;;;;;;;;;;;13.10;78.80;;;;;;5086654;28;19919;-75
2023/08/04 01:45:29;;;;;;;;;;;13.10;78.80;;;;;;5087524;28;19908;-75
2023/08/04 01:47:55;;;;;;;;;;;13.10;78.90;;;;;;5087684;28;19939;-75
2023/08/04 01:50:21;;;;;;;;;;;13.00;78.80;;;;;;5070417;28;19912;-75
2023/08/04 01:52:46;;;;;;;;;;;13.00;78.90;;;;;;5090308;28;19916;-75
2023/08/04 01:55:12;;;;;;;;;;;13.00;78.90;;;;;;5090339;28;19970;-75
2023/08/04 01:57:37;;;;;;;;;;;12.90;78.80;;;;;;5090129;28;19912;-75
2023/08/04 02:00:03;;;;;;;;;;;12.90;78.80;;;;;;5073360;28;19919;-75
2023/08/04 02:02:29;;;;;;;;;;;12.90;78.90;;;;;;5091101;28;20388;-75
2023/08/04 02:04:54;;;;;;;;;;;12.80;78.80;;;;;;5091243;28;20253;-75
2023/08/04 02:07:20;;;;;;;;;;;12.80;78.80;;;;;;5089841;28;19924;-75
2023/08/04 02:09:45;;;;;;;;;;;12.80;78.80;;;;;;5089851;28;19923;-74
2023/08/04 02:12:11;;;;;;;;;;;12.70;78.90;;;;;;5089945;28;20364;-75
2023/08/04 02:14:36;;;;;;;;;;;12.70;78.80;;;;;;5091082;28;19916;-75
2023/08/04 02:17:02;;;;;;;;;;;12.70;78.80;;;;;;5089745;28;19918;-75
2023/08/04 02:19:28;;;;;;;;;;;12.60;78.80;;;;;;5091032;28;19915;-75
2023/08/04 02:21:53;;;;;;;;;;;12.60;78.80;;;;;;5089766;28;19919;-75
2023/08/04 02:24:19;;;;;;;;;;;12.60;78.70;;;;;;5090864;28;19916;-75
2023/08/04 02:26:44;;;;;;;;;;;12.50;78.70;;;;;;5091127;28;19916;-75
2023/08/04 02:29:11;;;;;;;;;;;12.50;78.70;;;;;;5089374;28;19920;-75
2023/08/04 02:31:37;;;;;;;;;;;12.50;78.80;;;;;;5091207;28;19995;-75
2023/08/04 02:34:02;;;;;;;;;;;12.40;78.80;;;;;;5090691;28;20364;-75
2023/08/04 02:36:28;;;;;;;;;;;12.40;78.80;;;;;;5089400;28;19919;-75
2023/08/04 02:38:54;;;;;;;;;;;12.40;78.80;;;;;;5090594;28;19955;-74
2023/08/04 02:41:19;;;;;;;;;;;12.40;78.80;;;;;;5090963;28;19920;-75
2023/08/04 02:43:45;;;;;;;;;;;12.40;78.80;;;;;;5090635;28;19912;-74
2023/08/04 02:46:11;;;;;;;;;;;12.30;78.80;;;;;;5090422;28;19930;-75
2023/08/04 02:48:36;;;;;;;;;;;12.30;78.90;;;;;;5090576;28;19943;-75
2023/08/04 02:51:03;;;;;;;;;;;12.30;78.90;;;;;;5088812;28;20356;-75
2023/08/04 02:53:29;;;;;;;;;;;12.30;78.80;;;;;;5090356;28;19914;-75
2023/08/04 02:55:55;;;;;;;;;;;12.30;78.80;;;;;;5088877;28;19912;-75
2023/08/04 02:58:21;;;;;;;;;;;12.40;79.00;;;;;;5090267;28;20329;-75
2023/08/04 03:00:46;;;;;;;;;;;12.40;79.00;;;;;;5088075;28;20356;-75
2023/08/04 03:03:12;;;;;;;;;;;12.50;79.00;;;;;;5090331;28;19962;-75
2023/08/04 03:05:37;;;;;;;;;;;12.60;79.00;;;;;;5090132;28;20450;-75
2023/08/04 03:08:03;;;;;;;;;;;12.60;78.90;;;;;;5090144;28;20299;-75
2023/08/04 03:10:29;;;;;;;;;;;12.70;78.90;;;;;;5090045;28;20061;-75
2023/08/04 03:12:54;;;;;;;;;;;12.70;78.90;;;;;;5094715;28;19920;-75
2023/08/04 03:15:20;;;;;;;;;;;12.70;78.80;;;;;;5089977;28;19912;-75
2023/08/04 03:17:45;;;;;;;;;;;12.70;78.80;;;;;;5088509;28;20005;-75
2023/08/04 03:20:11;;;;;;;;;;;12.80;78.80;;;;;;5089778;28;19923;-75
2023/08/04 03:22:36;;;;;;;;;;;12.80;78.80;;;;;;5089887;28;20384;-75
2023/08/04 03:25:02;;;;;;;;;;;12.80;78.80;;;;;;5088447;28;19912;-75
2023/08/04 03:27:28;;;;;;;;;;;12.90;78.80;;;;;;5088443;28;19916;-75
2023/08/04 03:29:53;;;;;;;;;;;12.90;78.80;;;;;;5088355;28;20364;-74
2023/08/04 03:32:19;;;;;;;;;;;12.80;78.70;;;;;;5089633;28;19969;-75
2023/08/04 03:34:44;;;;;;;;;;;12.80;78.70;;;;;;5089516;28;19912;-75
2023/08/04 03:37:10;;;;;;;;;;;12.80;78.70;;;;;;5088230;28;19930;-75
2023/08/04 03:39:36;;;;;;;;;;;12.70;78.70;;;;;;5088172;28;19916;-75
2023/08/04 03:42:01;;;;;;;;;;;12.70;78.70;;;;;;5088257;28;19934;-75
2023/08/04 03:44:27;;;;;;;;;;;12.60;78.70;;;;;;5089462;28;20420;-75
2023/08/04 03:46:52;;;;;;;;;;;12.60;78.70;;;;;;5089268;28;19916;-75
2023/08/04 03:49:18;;;;;;;;;;;12.60;78.70;;;;;;5089743;28;19952;-74
2023/08/04 03:51:43;;;;;;;;;;;12.50;78.70;;;;;;5088051;28;19920;-75
2023/08/04 03:54:09;;;;;;;;;;;12.50;78.70;;;;;;5089154;28;19947;-75
2023/08/04 03:56:34;;;;;;;;;;;12.50;78.70;;;;;;5087583;28;19915;-75
2023/08/04 03:59:00;;;;;;;;;;;12.40;78.70;;;;;;5088580;28;19957;-75
2023/08/04 04:01:25;;;;;;;;;;;12.40;78.70;;;;;;5088630;28;20009;-75
2023/08/04 04:03:51;;;;;;;;;;;12.40;78.70;;;;;;5087571;28;20319;-74
2023/08/04 04:06:18;;;;;;;;;;;12.40;78.80;;;;;;5086814;28;21626;-75
2023/08/04 04:08:45;;;;;;;;;;;12.40;78.80;;;;;;5088904;28;19912;-75
2023/08/04 04:11:10;;;;;;;;;;;12.30;78.80;;;;;;5089088;28;19908;-75
2023/08/04 04:13:36;;;;;;;;;;;12.30;78.80;;;;;;5086529;28;19923;-75
2023/08/04 04:16:01;;;;;;;;;;;12.30;78.80;;;;;;5088944;28;19956;-75
2023/08/04 04:18:28;;;;;;;;;;;12.30;78.80;;;;;;5087416;28;19916;-75
2023/08/04 04:20:54;;;;;;;;;;;12.20;78.80;;;;;;5088818;28;19957;-77
2023/08/04 04:23:19;;;;;;;;;;;12.20;78.90;;;;;;5088707;28;20400;-75
2023/08/04 04:25:45;;;;;;;;;;;12.20;78.80;;;;;;5088678;28;19912;-77
2023/08/04 04:28:10;;;;;;;;;;;12.20;78.90;;;;;;5088650;28;20408;-75
2023/08/04 04:30:36;;;;;;;;;;;12.20;78.80;;;;;;5087233;28;19912;-75
2023/08/04 04:33:01;;;;;;;;;;;12.20;78.80;;;;;;5087338;28;19912;-77
2023/08/04 04:35:27;;;;;;;;;;;12.20;78.90;;;;;;5088616;28;19966;-77
2023/08/04 04:37:52;;;;;;;;;;;12.20;78.90;;;;;;5088520;28;19912;-77
2023/08/04 04:40:18;;;;;;;;;;;12.20;78.90;;;;;;5087266;28;19912;-77
2023/08/04 04:42:44;;;;;;;;;;;12.20;78.80;;;;;;5088760;28;19916;-77
2023/08/04 04:45:10;;;;;;;;;;;12.20;78.90;;;;;;5089124;28;19912;-77
2023/08/04 04:47:35;;;;;;;;;;;12.20;78.90;;;;;;5086939;28;19959;-77
2023/08/04 04:50:01;;;;;;;;;;;12.20;78.90;;;;;;5087996;28;19954;-76
2023/08/04 04:52:33;;;;;;;;;;;12.30;79.00;;;;;;5088349;28;19923;-76
2023/08/04 04:55:00;;;;;;;;;;;12.30;79.00;;;;;;5088386;28;19994;-76
2023/08/04 04:57:29;;;;;;;;;;;12.40;79.00;;;;;;5088087;28;20320;-76
2023/08/04 04:59:54;;;;;;;;;;;12.40;78.90;;;;;;5088141;28;19912;-76
2023/08/04 05:02:20;;;;;;;;;;;12.40;79.00;;;;;;5088021;28;19927;-76
2023/08/04 05:04:46;;;;;;;;;;;12.40;79.00;;;;;;5086827;28;20394;-76
2023/08/04 05:07:12;;;;;;;;;;;12.50;79.10;;;;;;5088021;28;19927;-77
2023/08/04 05:09:38;;;;;;;;;;;12.60;79.20;;;;;;5086706;28;19912;-77
2023/08/04 05:12:04;;;;;;;;;;;12.70;79.20;;;;;;5086459;28;19912;-77
2023/08/04 05:14:29;;;;;;;;;;;12.80;79.20;;;;;;5088013;28;19919;-76
2023/08/04 05:16:55;;;;;;;;;;;13.00;79.20;;;;;;5087801;28;20412;-76
2023/08/04 05:19:21;;;;;;;;;;;13.10;79.10;;;;;;5088072;28;19995;-77
2023/08/04 05:21:46;;;;;;;;;;;13.20;79.10;;;;;;5088334;28;20368;-77
2023/08/04 05:24:12;;;;;;;;;;;13.30;79.10;;;;;;5087634;28;20288;-76
2023/08/04 05:26:37;;;;;;;;;;;13.40;79.00;;;;;;5092390;28;19919;-76
2023/08/04 05:29:03;;;;;;;;;;;13.40;79.00;;;;;;5090581;28;20479;-76
2023/08/04 05:31:29;;;;;;;;;;;13.50;79.00;;;;;;5090529;28;19909;-76
2023/08/04 05:33:56;;;;;;;;;;;13.50;79.00;;;;;;5092128;28;20007;-76
2023/08/04 05:36:24;;;;;;;;;;;13.60;79.10;;;;;;5091751;28;19916;-77
2023/08/04 05:38:49;;;;;;;;;;;13.70;79.10;;;;;;5091669;28;19914;-76
2023/08/04 05:41:15;;;;;;;;;;;13.80;79.10;;;;;;5090276;28;20350;-76
2023/08/04 05:43:41;;;;;;;;;;;13.80;79.10;;;;;;5090397;28;20272;-76
2023/08/04 05:46:06;;;;;;;;;;;13.90;79.10;;;;;;5091377;28;19922;-76
2023/08/04 05:48:32;;;;;;;;;;;13.90;79.10;;;;;;5090365;28;19927;-77
2023/08/04 05:50:58;;;;;;;;;;;14.00;79.10;;;;;;5090116;28;19915;-76
2023/08/04 05:53:24;;;;;;;;;;;14.10;79.20;;;;;;5091551;28;19916;-77
2023/08/04 05:55:49;;;;;;;;;;;14.20;79.20;;;;;;5090217;28;19920;-76
2023/08/04 05:58:15;;;;;;;;;;;14.30;79.20;;;;;;5090084;28;20346;-77
2023/08/04 06:00:40;;;;;;;;;;;14.40;79.20;;;;;;5091368;28;19919;-76
2023/08/04 06:03:06;;;;;;;;;;;14.50;79.20;;;;;;5090945;28;20006;-77
2023/08/04 06:05:32;;;;;;;;;;;14.60;79.20;;;;;;5072601;28;19920;-77
2023/08/04 06:07:57;;;;;;;;;;;14.60;79.10;;;;;;5090961;28;19948;-77
2023/08/04 06:10:23;;;;;;;;;;;14.80;79.00;;;;;;5089617;28;20327;-77
2023/08/04 06:12:49;;;;;;;;;;;14.80;79.20;;;;;;5089685;28;19915;-76
2023/08/04 06:15:15;;;;;;;;;;;15.00;78.90;;;;;;5089773;28;20264;-76
2023/08/04 06:17:41;;;;;;;;;;;15.00;78.70;;;;;;5091572;28;19976;-77
2023/08/04 06:20:07;;;;;;;;;;;15.10;78.70;;;;;;5090892;28;20061;-74
2023/08/04 06:22:33;;;;;;;;;;;15.10;78.90;;;;;;5090934;28;20435;-76
2023/08/04 06:24:59;;;;;;;;;;;15.10;78.90;;;;;;5090918;28;19908;-77
2023/08/04 06:27:24;;;;;;;;;;;15.10;78.90;;;;;;5089398;28;20007;-76
2023/08/04 06:29:50;;;;;;;;;;;15.10;78.80;;;;;;5090401;28;20419;-77
2023/08/04 06:32:16;;;;;;;;;;;15.10;78.80;;;;;;5089278;28;19969;-77
2023/08/04 06:34:41;;;;;;;;;;;15.00;78.80;;;;;;5089171;28;19908;-77
2023/08/04 06:37:07;;;;;;;;;;;15.00;78.80;;;;;;5088035;28;19912;-77
2023/08/04 06:39:33;;;;;;;;;;;15.00;78.90;;;;;;5090295;28;19919;-77
2023/08/04 06:41:58;;;;;;;;;;;15.10;79.10;;;;;;5090679;28;19912;-77
2023/08/04 06:44:24;;;;;;;;;;;15.30;79.30;;;;;;5090257;28;19912;-77
2023/08/04 06:46:50;;;;;;;;;;;15.70;78.70;;;;;;5090347;28;19919;-77
2023/08/04 06:49:15;;;;;;;;;;;15.90;78.20;;;;;;5090397;28;19939;-77
2023/08/04 06:51:41;;;;;;;;;;;15.90;78.10;;;;;;5088604;28;19912;-77
2023/08/04 06:54:06;;;;;;;;;;;15.80;78.10;;;;;;5088837;28;20001;-77
2023/08/04 06:56:32;;;;;;;;;;;15.80;78.30;;;;;;5071522;28;19916;-77
2023/08/04 06:58:57;;;;;;;;;;;15.70;78.40;;;;;;5089689;28;20046;-77
2023/08/04 07:01:23;;;;;;;;;;;15.70;78.50;;;;;;5088237;28;19920;-77
2023/08/04 07:03:48;;;;;;;;;;;15.70;78.60;;;;;;5088665;28;19912;-77
2023/08/04 07:06:14;;;;;;;;;;;15.70;78.70;;;;;;5089768;28;19927;-76
2023/08/04 07:08:40;;;;;;;;;;;15.70;78.80;;;;;;5089121;28;20023;-76
2023/08/04 07:11:12;;;;;;;;;;;15.80;79.00;;;;;;5089276;28;19916;-77
2023/08/04 07:13:38;;;;;;;;;;;15.90;79.00;;;;;;5089410;28;19915;-77
2023/08/04 07:16:03;;;;;;;;;;;15.90;79.00;;;;;;5088451;28;20325;-77
2023/08/04 07:18:29;;;;;;;;;;;16.00;79.10;;;;;;5090138;28;20048;-77
2023/08/04 07:21:02;;;;;;;;;;;16.10;79.10;;;;;;5089328;28;19912;-75
2023/08/04 07:23:28;;;;;;;;;;;16.30;79.40;;;;;;5089514;28;19912;-77
2023/08/04 07:25:57;;;;;;;;;;;16.60;79.30;;;;;;5089705;28;20011;-77
2023/08/04 07:28:22;;;;;;;;;;;16.90;79.90;;;;;;5089355;28;19912;-77
2023/08/04 07:30:48;;;;;;;;;;;18.00;80.50;;;;;;5089386;28;20286;-74
2023/08/04 07:33:13;;;;;;;;;;;19.30;80.00;;;;;;5089177;28;19916;-74
2023/08/04 07:35:39;;;;;;;;;;;20.50;78.60;;;;;;5088963;28;19961;-76
2023/08/04 07:38:04;;;;;;;;;;;21.30;77.50;;;;;;5088848;28;19913;-75
2023/08/04 07:40:30;;;;;;;;;;;21.70;77.20;;;;;;5087538;28;19915;-75
2023/08/04 07:42:55;;;;;;;;;;;22.10;77.40;;;;;;5089269;28;19916;-75
2023/08/04 07:45:21;;;;;;;;;;;22.40;77.40;;;;;;5088934;28;20376;-75
2023/08/04 07:47:47;;;;;;;;;;;22.90;77.70;;;;;;5088719;28;20401;-75
2023/08/04 07:50:12;;;;;;;;;;;23.20;77.20;;;;;;5091883;28;19919;-74
2023/08/04 07:52:38;;;;;;;;;;;23.40;77.40;;;;;;5089580;28;19912;-75
2023/08/04 07:55:03;;;;;;;;;;;23.50;77.20;;;;;;5088795;28;19916;-75
2023/08/04 07:57:29;;;;;;;;;;;23.50;77.90;;;;;;5087587;28;19966;-75
2023/08/04 07:59:54;;;;;;;;;;;24.00;78.10;;;;;;5088877;28;20340;-75
2023/08/04 08:02:20;;;;;;;;;;;24.10;77.80;;;;;;5086856;28;20358;-75
2023/08/04 08:04:45;;;;;;;;;;;24.50;78.40;;;;;;5088521;28;19916;-75
2023/08/04 08:07:11;;;;;;;;;;;25.40;78.50;;;;;;5086728;28;19931;-74
2023/08/04 08:09:37;;;;;;;;;;;25.90;77.50;;;;;;5088540;28;19919;-75
2023/08/04 08:12:02;;;;;;;;;;;25.60;76.90;;;;;;5088289;28;19919;-75
2023/08/04 08:14:28;;;;;;;;;;;25.30;77.60;;;;;;5086996;28;19984;-75
2023/08/04 08:16:54;;;;;;;;;;;25.60;78.30;;;;;;5088238;28;20283;-76
2023/08/04 08:19:19;;;;;;;;;;;25.90;78.60;;;;;;5087068;28;19919;-75
2023/08/04 08:21:45;;;;;;;;;;;26.50;78.80;;;;;;5086713;28;19912;-76
2023/08/04 08:24:10;;;;;;;;;;;27.10;78.90;;;;;;5087871;28;19912;-75
2023/08/04 08:26:36;;;;;;;;;;;27.40;78.20;;;;;;5087929;28;19920;-76
2023/08/04 08:29:02;;;;;;;;;;;27.60;78.20;;;;;;5069279;28;19912;-76
2023/08/04 08:31:28;;;;;;;;;;;27.70;78.40;;;;;;5087880;28;20541;-76
2023/08/04 08:33:53;;;;;;;;;;;27.80;78.70;;;;;;5088023;28;19908;-76
2023/08/04 08:36:19;;;;;;;;;;;27.70;78.50;;;;;;5087697;28;19935;-74
2023/08/04 08:38:45;;;;;;;;;;;27.60;78.70;;;;;;5087805;28;19991;-76
2023/08/04 08:41:13;;;;;;;;;;;27.40;78.70;;;;;;5086443;28;20045;-76
2023/08/04 08:43:43;;;;;;;;;;;27.50;79.40;;;;;;5086231;28;20345;-76
2023/08/04 08:46:09;;;;;;;;;;;27.70;79.70;;;;;;5087360;28;20280;-75
2023/08/04 08:48:36;;;;;;;;;;;27.60;79.10;;;;;;5084904;28;19920;-78
2023/08/04 08:51:04;;;;;;;;;;;27.70;79.60;;;;;;5087164;28;20403;-76
2023/08/04 08:53:31;;;;;;;;;;;27.20;79.10;;;;;;5087756;28;19923;-76
2023/08/04 08:55:59;;;;;;;;;;;26.90;80.20;;;;;;5087999;28;19908;-75
2023/08/04 08:58:25;;;;;;;;;;;26.70;80.20;;;;;;5087637;28;19951;-75
2023/08/04 09:00:51;;;;;;;;;;;26.50;80.30;;;;;;5087020;28;19951;-75
2023/08/04 09:03:17;;;;;;;;;;;26.50;80.60;;;;;;5087944;28;19950;-77
2023/08/04 09:05:43;;;;;;;;;;;26.20;80.60;;;;;;5087497;28;19920;-76
2023/08/04 09:08:08;;;;;;;;;;;25.70;81.10;;;;;;5086672;28;20360;-76
2023/08/04 09:10:36;;;;;;;;;;;25.80;82.10;;;;;;5087275;28;19939;-76
2023/08/04 09:13:02;;;;;;;;;;;26.10;83.10;;;;;;5088261;28;19951;-75
2023/08/04 09:15:47;;;;;;;;;;;26.70;82.80;;;;;;5089039;28;19932;-78
2023/08/04 09:18:25;;;;;;;;;;;27.10;82.70;;;;;;5089270;28;19930;-78
2023/08/04 09:20:58;;;;;;;;;;;27.50;82.50;;;;;;5088197;28;19909;-78
2023/08/04 09:23:24;;;;;;;;;;;27.90;82.70;;;;;;5091303;28;20011;-78
2023/08/04 09:25:55;;;;;;;;;;;27.80;81.30;;;;;;5092978;28;20499;-75
2023/08/04 09:28:21;;;;;;;;;;;27.20;80.50;;;;;;5087074;28;20045;-78
2023/08/04 09:31:06;;;;;;;;;;;26.60;80.60;;;;;;5089379;28;19944;-81
2023/08/04 09:33:33;;;;;;;;;;;26.10;80.60;;;;;;5086623;28;19915;-75
2023/08/04 09:36:06;;;;;;;;;;;25.80;82.30;;;;;;5088302;28;19908;-74
2023/08/04 09:38:31;;;;;;;;;;;26.30;83.40;;;;;;5087598;28;19946;-75
2023/08/04 09:41:07;;;;;;;;;;;27.00;83.90;;;;;;5087863;28;20315;-77
2023/08/04 09:43:33;;;;;;;;;;;27.40;83.10;;;;;;5088416;28;19961;-75
2023/08/04 09:46:03;;;;;;;;;;;27.90;83.00;;;;;;5088068;28;20000;-77
2023/08/04 09:48:28;;;;;;;;;;;28.50;83.60;;;;;;5088602;28;19941;-78
2023/08/04 09:51:10;;;;;;;;;;;29.40;82.90;;;;;;5091651;28;19978;-77
2023/08/04 09:53:40;;;;;;;;;;;29.20;81.20;;;;;;5094716;28;19923;-78
2023/08/04 09:56:06;;;;;;;;;;;28.40;80.30;;;;;;5088449;28;19916;-79
2023/08/04 09:58:34;;;;;;;;;;;28.10;81.30;;;;;;5089542;28;19922;-79
2023/08/04 10:01:00;;;;;;;;;;;28.80;82.50;;;;;;5088480;28;20346;-78
2023/08/04 10:03:26;;;;;;;;;;;29.60;82.20;;;;;;5088383;28;19923;-79
2023/08/04 10:05:52;;;;;;;;;;;29.50;80.60;;;;;;5086305;28;20336;-77
2023/08/04 10:08:18;;;;;;;;;;;28.80;80.30;;;;;;5086423;28;20411;-76
2023/08/04 10:10:44;;;;;;;;;;;28.10;80.40;;;;;;5087921;28;19916;-78
2023/08/04 10:13:10;;;;;;;;;;;28.00;81.30;;;;;;5092295;28;20548;-78
2023/08/04 10:15:35;;;;;;;;;;;28.10;81.90;;;;;;5092111;28;20363;-80
2023/08/04 10:18:02;;;;;;;;;;;28.30;81.60;;;;;;5091882;28;20015;-77
2023/08/04 10:20:32;;;;;;;;;;;28.30;80.90;;;;;;5091845;28;19934;-76
2023/08/04 10:22:58;;;;;;;;;;;28.30;82.00;;;;;;5091991;28;19908;-78
2023/08/04 10:25:24;;;;;;;;;;;28.60;82.80;;;;;;5092187;28;19932;-77
2023/08/04 10:27:50;;;;;;;;;;;28.70;82.90;;;;;;5091581;28;20004;-77
2023/08/04 10:30:16;;;;;;;;;;;28.80;83.30;;;;;;5092711;28;20001;-80
2023/08/04 10:32:42;;;;;;;;;;;29.00;83.30;;;;;;5091985;28;19920;-76
2023/08/04 10:35:25;;;;;;;;;;;29.20;83.30;;;;;;5091580;28;19913;-79
2023/08/04 10:37:55;;;;;;;;;;;29.20;82.30;;;;;;5092172;28;19913;-77
2023/08/04 10:40:27;;;;;;;;;;;28.70;82.50;;;;;;5092153;28;19981;-78
2023/08/04 10:43:04;;;;;;;;;;;28.40;82.40;;;;;;5089941;28;19908;-77
2023/08/04 10:45:48;;;;;;;;;;;27.60;81.90;;;;;;5091931;28;19915;-78
2023/08/04 10:48:14;;;;;;;;;;;26.70;81.80;;;;;;5091917;28;19932;-79
2023/08/04 10:50:40;;;;;;;;;;;25.70;82.60;;;;;;5090960;28;19919;-78
2023/08/04 10:53:05;;;;;;;;;;;25.50;83.40;;;;;;5092214;28;19919;-75
2023/08/04 10:55:32;;;;;;;;;;;25.50;83.60;;;;;;5092142;28;19908;-77
2023/08/04 10:57:58;;;;;;;;;;;25.70;83.40;;;;;;5092146;28;19915;-79
2023/08/04 11:00:23;;;;;;;;;;;25.70;82.70;;;;;;5093515;28;19912;-77
2023/08/04 11:02:49;;;;;;;;;;;25.70;82.30;;;;;;5091322;28;19924;-76
2023/08/04 11:05:14;;;;;;;;;;;25.90;82.30;;;;;;5090901;28;19916;-75
2023/08/04 11:07:47;;;;;;;;;;;26.10;82.30;;;;;;5090140;28;20001;-75
2023/08/04 11:10:12;;;;;;;;;;;26.30;82.00;;;;;;5090152;28;19916;-76
2023/08/04 11:12:38;;;;;;;;;;;26.40;81.70;;;;;;5084754;28;19916;-79
2023/08/04 11:15:04;;;;;;;;;;;26.50;81.50;;;;;;5091867;28;20303;-81
2023/08/04 11:17:29;;;;;;;;;;;26.60;81.50;;;;;;5091180;28;19944;-78
2023/08/04 11:19:55;;;;;;;;;;;26.80;81.50;;;;;;5092275;28;19963;-79
2023/08/04 11:22:21;;;;;;;;;;;26.70;80.90;;;;;;5090890;28;19923;-79
2023/08/04 11:24:49;;;;;;;;;;;26.30;80.70;;;;;;5092073;28;19908;-76
2023/08/04 11:27:15;;;;;;;;;;;26.00;80.70;;;;;;5091320;28;19912;-79
2023/08/04 11:29:40;;;;;;;;;;;25.80;80.50;;;;;;5090578;28;20441;-77
2023/08/04 11:32:09;;;;;;;;;;;25.60;80.50;;;;;;5090854;28;19908;-78
2023/08/04 11:34:35;;;;;;;;;;;25.50;80.60;;;;;;5091110;28;19915;-78
2023/08/04 11:37:00;;;;;;;;;;;25.50;80.70;;;;;;5082724;28;20261;-80
2023/08/04 11:39:29;;;;;;;;;;;25.60;80.90;;;;;;5069357;28;20280;-80
2023/08/04 11:41:55;;;;;;;;;;;25.80;81.00;;;;;;5069470;28;19981;-81
2023/08/04 11:44:21;;;;;;;;;;;26.00;80.80;;;;;;5070442;28;19920;-78
2023/08/04 11:46:47;;;;;;;;;;;26.20;80.70;;;;;;5070170;28;20333;-81
2023/08/04 11:49:12;;;;;;;;;;;26.20;80.80;;;;;;5069243;28;20009;-79
2023/08/04 11:51:41;;;;;;;;;;;26.20;80.60;;;;;;5052579;28;20288;-79
2023/08/04 11:54:15;;;;;;;;;;;26.20;80.50;;;;;;5070394;28;19959;-78
2023/08/04 11:56:40;;;;;;;;;;;26.10;80.20;;;;;;5070824;28;20253;-78
2023/08/04 11:59:10;;;;;;;;;;;25.90;79.90;;;;;;5069045;28;19928;-78
2023/08/04 12:01:36;;;;;;;;;;;25.70;79.90;;;;;;5070468;28;20007;-82
2023/08/04 12:04:02;;;;;;;;;;;25.50;79.80;;;;;;5070789;28;20368;-80
2023/08/04 12:06:29;;;;;;;;;;;25.30;79.70;;;;;;5070220;28;19924;-80
2023/08/04 12:08:55;;;;;;;;;;;25.20;79.80;;;;;;5070890;28;19935;-82
2023/08/04 12:11:22;;;;;;;;;;;25.00;79.50;;;;;;5069570;28;20313;-81
2023/08/04 12:13:48;;;;;;;;;;;25.00;79.70;;;;;;5068957;28;19917;-79
2023/08/04 12:16:14;;;;;;;;;;;24.90;79.80;;;;;;5070249;28;19932;-80
2023/08/04 12:18:40;;;;;;;;;;;25.00;79.90;;;;;;5093103;28;19976;-82
2023/08/04 12:21:06;;;;;;;;;;;25.00;80.10;;;;;;5109241;28;20015;-79
2023/08/04 12:23:32;;;;;;;;;;;24.90;80.00;;;;;;5110269;28;19908;-81
2023/08/04 12:25:57;;;;;;;;;;;24.90;80.00;;;;;;5108548;28;20259;-80
2023/08/04 12:28:23;;;;;;;;;;;24.80;80.10;;;;;;5108519;28;19919;-81
2023/08/04 12:30:49;;;;;;;;;;;24.70;79.60;;;;;;5101174;28;20074;-80
2023/08/04 12:33:15;;;;;;;;;;;24.60;79.70;;;;;;5088840;28;19928;-77
2023/08/04 12:35:40;;;;;;;;;;;24.50;79.60;;;;;;5090795;28;19988;-78
2023/08/04 12:38:06;;;;;;;;;;;24.30;79.40;;;;;;5088622;28;19919;-77
2023/08/04 12:40:32;;;;;;;;;;;24.30;79.60;;;;;;5090495;28;19915;-79
2023/08/04 12:42:57;;;;;;;;;;;24.30;79.70;;;;;;5079116;28;19913;-78
2023/08/04 12:45:23;;;;;;;;;;;24.20;79.80;;;;;;5068803;28;19908;-77
2023/08/04 12:47:48;;;;;;;;;;;24.20;80.30;;;;;;5069048;28;19916;-78
2023/08/04 12:50:14;;;;;;;;;;;24.40;80.40;;;;;;5069339;28;20008;-76
2023/08/04 12:52:39;;;;;;;;;;;24.60;80.40;;;;;;5068862;28;19919;-77
2023/08/04 12:55:05;;;;;;;;;;;24.70;80.10;;;;;;5084435;28;19948;-78
2023/08/04 12:57:31;;;;;;;;;;;24.80;79.80;;;;;;5068809;28;20403;-76
2023/08/04 12:59:56;;;;;;;;;;;24.90;79.80;;;;;;5069025;28;19947;-76
2023/08/04 13:02:22;;;;;;;;;;;25.00;80.10;;;;;;5068287;28;19920;-77
2023/08/04 13:04:48;;;;;;;;;;;25.00;79.40;;;;;;5067271;28;19912;-76
2023/08/04 13:07:13;;;;;;;;;;;24.90;79.10;;;;;;5068360;28;19916;-76
2023/08/04 13:09:39;;;;;;;;;;;24.80;79.10;;;;;;5050354;28;19912;-78
2023/08/04 13:12:05;;;;;;;;;;;24.70;79.10;;;;;;5068429;28;20009;-76
2023/08/04 13:14:31;;;;;;;;;;;24.60;79.20;;;;;;5066390;28;20277;-66
2023/08/04 13:16:56;;;;;;;;;;;24.40;79.20;;;;;;5068240;28;19938;-76
2023/08/04 13:19:22;;;;;;;;;;;24.20;79.30;;;;;;5068619;28;20365;-76
2023/08/04 13:21:47;;;;;;;;;;;24.10;79.00;;;;;;5066975;28;19920;-76
2023/08/04 13:24:13;;;;;;;;;;;23.90;79.10;;;;;;5068108;28;19921;-75
2023/08/04 13:26:42;;;;;;;;;;;23.90;79.30;;;;;;5067721;28;19913;-77
2023/08/04 13:29:07;;;;;;;;;;;23.90;79.40;;;;;;5067732;28;19913;-76
2023/08/04 13:31:33;;;;;;;;;;;24.00;79.40;;;;;;5076351;28;19918;-76
2023/08/04 13:33:58;;;;;;;;;;;24.10;79.20;;;;;;5093258;28;19920;-77
2023/08/04 13:36:24;;;;;;;;;;;24.10;79.10;;;;;;5089011;28;19912;-78
2023/08/04 13:38:50;;;;;;;;;;;24.10;79.30;;;;;;5088902;28;19919;-78
2023/08/04 13:41:15;;;;;;;;;;;24.30;79.40;;;;;;5091680;28;19919;-78
2023/08/04 13:43:44;;;;;;;;;;;24.40;79.50;;;;;;5071042;28;20330;-79
2023/08/04 13:46:10;;;;;;;;;;;24.50;79.40;;;;;;5090258;28;20003;-80
2023/08/04 13:48:41;;;;;;;;;;;24.60;79.20;;;;;;5091717;28;19952;-79
2023/08/04 13:51:07;;;;;;;;;;;24.50;79.10;;;;;;5092958;28;19912;-80
2023/08/04 13:53:32;;;;;;;;;;;24.50;78.80;;;;;;5074869;28;20003;-78
2023/08/04 13:56:02;;;;;;;;;;;24.40;78.70;;;;;;5093171;28;19916;-80
2023/08/04 13:58:27;;;;;;;;;;;24.30;78.70;;;;;;5091998;28;19908;-78
2023/08/04 14:01:00;;;;;;;;;;;24.30;78.80;;;;;;5092151;28;20352;-78
2023/08/04 14:03:26;;;;;;;;;;;24.30;79.20;;;;;;5091446;28;20015;-77
2023/08/04 14:05:55;;;;;;;;;;;24.40;79.50;;;;;;5092034;28;20495;-77
2023/08/04 14:08:20;;;;;;;;;;;24.50;79.60;;;;;;5091042;28;19912;-78
2023/08/04 14:10:46;;;;;;;;;;;24.50;79.20;;;;;;5092324;28;19919;-77